createdAt,value
2022-08-29T00:01:15.069Z,19.17
2022-08-29T00:03:43.228Z,19.15
2022-08-29T00:06:11.789Z,19.11
2022-08-29T00:08:39.701Z,19.09
2022-08-29T00:11:08.135Z,19.06
2022-08-29T00:13:36.655Z,19.04
2022-08-29T00:16:07.021Z,19.01
2022-08-29T00:18:35.921Z,18.97
2022-08-29T00:21:04.884Z,18.94
2022-08-29T00:23:32.987Z,18.89
2022-08-29T00:26:00.918Z,18.87
2022-08-29T00:28:28.826Z,18.82
2022-08-29T00:30:57.184Z,18.81
2022-08-29T00:33:26.482Z,18.77
2022-08-29T00:35:54.391Z,18.74
2022-08-29T00:38:27.710Z,18.68
2022-08-29T00:40:58.209Z,18.66
2022-08-29T00:43:28.519Z,18.61
2022-08-29T00:46:04.520Z,18.58
2022-08-29T00:48:35.752Z,18.54
2022-08-29T00:51:07.867Z,18.51
2022-08-29T00:53:39.958Z,18.50
2022-08-29T00:56:09.880Z,18.50
2022-08-29T00:58:43.101Z,18.50
2022-08-29T01:01:14.270Z,18.50
2022-08-29T01:03:44.098Z,18.50
2022-08-29T01:06:14.939Z,18.46
2022-08-29T01:08:44.065Z,18.43
2022-08-29T01:11:40.963Z,18.38
2022-08-29T01:14:10.540Z,18.32
2022-08-29T01:16:39.871Z,18.33
2022-08-29T01:19:18.485Z,18.35
2022-08-29T01:21:56.677Z,18.35
2022-08-29T01:24:36.758Z,18.35
2022-08-29T01:27:05.061Z,18.35
2022-08-29T01:29:33.083Z,18.35
2022-08-29T01:32:01.025Z,18.34
2022-08-29T01:34:30.602Z,18.32
2022-08-29T01:37:01.234Z,18.29
2022-08-29T01:39:32.925Z,18.24
2022-08-29T01:42:03.915Z,18.19
2022-08-29T01:44:31.817Z,18.15
2022-08-29T01:47:03.266Z,18.11
2022-08-29T01:49:33.134Z,18.06
2022-08-29T01:52:01.950Z,18.02
2022-08-29T01:54:32.187Z,17.97
2022-08-29T01:57:00.747Z,17.92
2022-08-29T01:59:31.114Z,17.90
2022-08-29T02:02:03.792Z,17.84
2022-08-29T02:04:31.912Z,17.81
2022-08-29T02:07:00.364Z,17.77
2022-08-29T02:09:29.637Z,17.73
2022-08-29T02:11:59.487Z,17.70
2022-08-29T02:14:27.675Z,17.64
2022-08-29T02:16:55.777Z,17.59
2022-08-29T02:19:24.041Z,17.49
2022-08-29T02:21:52.532Z,17.42
2022-08-29T02:24:27.613Z,17.41
2022-08-29T02:26:57.377Z,17.40
2022-08-29T02:29:37.197Z,17.38
2022-08-29T02:32:07.162Z,17.36
2022-08-29T02:34:36.410Z,17.33
2022-08-29T02:37:04.791Z,17.29
2022-08-29T02:39:34.081Z,17.26
2022-08-29T02:42:02.536Z,17.24
2022-08-29T02:44:31.703Z,17.23
2022-08-29T02:46:59.815Z,17.22
2022-08-29T02:49:27.736Z,17.19
2022-08-29T02:51:56.131Z,17.16
2022-08-29T02:54:24.055Z,17.14
2022-08-29T02:56:52.351Z,17.12
2022-08-29T02:59:20.283Z,17.11
2022-08-29T03:01:49.541Z,17.08
2022-08-29T03:04:17.437Z,17.08
2022-08-29T03:06:46.906Z,17.08
2022-08-29T03:09:15.149Z,17.08
2022-08-29T03:11:43.024Z,17.09
2022-08-29T03:14:10.896Z,17.10
2022-08-29T03:16:39.024Z,17.10
2022-08-29T03:19:08.456Z,17.12
2022-08-29T03:21:36.309Z,17.11
2022-08-29T03:24:04.692Z,17.09
2022-08-29T03:26:32.582Z,17.09
2022-08-29T03:29:00.401Z,17.10
2022-08-29T03:31:28.333Z,17.10
2022-08-29T03:33:56.712Z,17.11
2022-08-29T03:36:27.038Z,17.10
2022-08-29T03:38:55.160Z,17.10
2022-08-29T03:41:23.953Z,17.10
2022-08-29T03:43:52.311Z,17.09
2022-08-29T03:46:20.520Z,17.09
2022-08-29T03:48:48.584Z,17.07
2022-08-29T03:51:16.670Z,17.05
2022-08-29T03:53:46.780Z,17.02
2022-08-29T03:56:18.710Z,16.98
2022-08-29T03:58:52.554Z,16.94
2022-08-29T04:01:22.907Z,16.90
2022-08-29T04:03:51.331Z,16.87
2022-08-29T04:06:19.836Z,16.84
2022-08-29T04:08:50.940Z,16.82
2022-08-29T04:11:20.623Z,16.80
2022-08-29T04:14:07.490Z,16.75
2022-08-29T04:16:55.976Z,16.72
2022-08-29T04:19:34.274Z,16.69
2022-08-29T04:22:14.099Z,16.66
2022-08-29T04:25:36.835Z,16.57
2022-08-29T04:28:12.675Z,16.57
2022-08-29T04:33:48.282Z,16.51
2022-08-29T04:36:20.167Z,16.50
2022-08-29T04:38:52.469Z,16.47
2022-08-29T04:41:38.782Z,16.44
2022-08-29T04:44:28.331Z,16.41
2022-08-29T04:46:59.309Z,16.39
2022-08-29T04:49:29.720Z,16.36
2022-08-29T04:52:13.980Z,16.35
2022-08-29T04:54:53.820Z,16.34
2022-08-29T04:57:27.898Z,16.33
2022-08-29T05:00:04.620Z,16.30
2022-08-29T05:02:50.543Z,16.25
2022-08-29T05:05:20.712Z,16.22
2022-08-29T05:07:49.938Z,16.21
2022-08-29T05:13:09.948Z,16.19
2022-08-29T05:15:43.498Z,16.19
2022-08-29T05:18:27.748Z,16.17
2022-08-29T05:20:58.594Z,16.17
2022-08-29T05:23:45.359Z,16.16
2022-08-29T05:26:29.407Z,16.16
2022-08-29T05:29:20.198Z,16.16
2022-08-29T05:35:22.190Z,16.19
2022-08-29T05:37:54.599Z,16.24
2022-08-29T05:43:11.484Z,16.36
2022-08-29T05:45:43.800Z,16.41
2022-08-29T05:48:18.261Z,16.45
2022-08-29T05:51:15.003Z,16.48
2022-08-29T05:56:47.937Z,16.56
2022-08-29T05:59:42.433Z,16.56
2022-08-29T06:02:28.080Z,16.60
2022-08-29T06:05:04.511Z,16.69
2022-08-29T06:08:13.118Z,16.73
2022-08-29T06:10:52.526Z,16.83
2022-08-29T06:13:32.592Z,16.92
2022-08-29T06:16:30.021Z,16.92
2022-08-29T06:19:43.258Z,17.01
2022-08-29T06:22:48.570Z,17.11
2022-08-29T06:25:40.105Z,17.19
2022-08-29T06:28:14.855Z,17.23
2022-08-29T06:31:03.324Z,17.18
2022-08-29T06:33:42.933Z,17.16
2022-08-29T06:36:17.669Z,17.19
2022-08-29T06:42:38.297Z,17.34
2022-08-29T06:45:07.929Z,17.46
2022-08-29T06:47:35.833Z,17.53
2022-08-29T06:50:04.065Z,17.63
2022-08-29T06:52:31.910Z,17.67
2022-08-29T06:54:59.808Z,17.72
2022-08-29T06:57:29.334Z,17.94
2022-08-29T06:59:58.658Z,18.22
2022-08-29T07:02:26.641Z,18.54
2022-08-29T07:04:54.587Z,18.75
2022-08-29T07:07:22.435Z,18.96
2022-08-29T07:09:50.390Z,19.24
2022-08-29T07:12:18.662Z,19.41
2022-08-29T07:14:46.879Z,19.55
2022-08-29T07:17:20.892Z,19.73
2022-08-29T07:19:54.815Z,19.95
2022-08-29T07:22:22.881Z,20.20
2022-08-29T07:24:50.745Z,20.39
2022-08-29T07:27:18.665Z,20.55
2022-08-29T07:29:50.458Z,20.76
2022-08-29T07:32:23.989Z,20.97
2022-08-29T07:34:56.111Z,21.25
2022-08-29T07:37:24.542Z,21.51
2022-08-29T07:39:52.430Z,21.60
2022-08-29T07:42:20.269Z,21.79
2022-08-29T07:44:48.233Z,21.92
2022-08-29T07:47:16.395Z,22.08
2022-08-29T07:49:45.840Z,22.36
2022-08-29T07:52:13.780Z,22.60
2022-08-29T07:54:41.680Z,22.73
2022-08-29T07:57:09.616Z,22.82
2022-08-29T07:59:37.611Z,22.81
2022-08-29T08:02:06.009Z,22.72
2022-08-29T08:04:33.991Z,22.58
2022-08-29T08:07:04.775Z,22.48
2022-08-29T08:09:41.550Z,22.48
2022-08-29T08:12:13.848Z,22.54
2022-08-29T08:14:41.845Z,22.60
2022-08-29T08:17:10.201Z,22.65
2022-08-29T08:19:38.659Z,22.70
2022-08-29T08:22:08.025Z,22.80
2022-08-29T08:24:35.872Z,22.91
2022-08-29T08:27:03.806Z,23.02
2022-08-29T08:29:31.710Z,23.00
2022-08-29T08:32:00.258Z,23.15
2022-08-29T08:34:29.415Z,23.23
2022-08-29T08:36:58.190Z,23.17
2022-08-29T08:39:27.554Z,23.27
2022-08-29T08:41:58.275Z,23.34
2022-08-29T08:44:49.534Z,23.14
2022-08-29T08:47:23.340Z,23.20
2022-08-29T08:49:54.762Z,23.10
2022-08-29T08:52:29.124Z,22.89
2022-08-29T08:55:03.033Z,22.71
2022-08-29T08:57:39.720Z,22.63
2022-08-29T09:00:10.805Z,22.51
2022-08-29T09:02:49.263Z,22.42
2022-08-29T09:05:35.044Z,22.45
2022-08-29T09:08:14.524Z,22.39
2022-08-29T09:10:50.185Z,22.44
2022-08-29T09:13:29.076Z,22.50
2022-08-29T09:16:00.906Z,22.49
2022-08-29T09:18:35.409Z,22.47
2022-08-29T09:21:29.913Z,22.56
2022-08-29T09:23:59.700Z,22.57
2022-08-29T09:26:29.133Z,22.61
2022-08-29T09:28:58.917Z,22.70
2022-08-29T09:31:31.704Z,22.78
2022-08-29T09:34:02.167Z,22.91
2022-08-29T09:36:38.379Z,23.11
2022-08-29T09:39:21.548Z,23.46
2022-08-29T09:41:53.226Z,23.88
2022-08-29T09:44:25.599Z,24.20
2022-08-29T09:47:12.495Z,24.52
2022-08-29T09:49:43.257Z,24.68
2022-08-29T09:52:15.907Z,24.79
2022-08-29T09:54:44.668Z,24.89
2022-08-29T09:57:23.296Z,24.99
2022-08-29T10:00:11.943Z,25.14
2022-08-29T10:02:47.512Z,25.17
2022-08-29T10:05:33.862Z,25.31
2022-08-29T10:08:03.089Z,25.39
2022-08-29T10:10:34.717Z,25.60
2022-08-29T10:13:09.242Z,25.81
2022-08-29T10:15:50.843Z,26.05
2022-08-29T10:18:28.624Z,26.36
2022-08-29T10:21:08.109Z,26.53
2022-08-29T10:23:43.790Z,26.58
2022-08-29T10:26:26.440Z,26.52
2022-08-29T10:29:04.272Z,26.28
2022-08-29T10:31:38.975Z,26.05
2022-08-29T10:34:22.148Z,25.93
2022-08-29T10:36:58.346Z,26.16
2022-08-29T10:39:37.816Z,26.31
2022-08-29T10:42:09.993Z,26.46
2022-08-29T10:44:56.057Z,26.78
2022-08-29T10:47:30.180Z,26.91
2022-08-29T10:50:43.213Z,26.73
2022-08-29T10:53:15.964Z,26.96
2022-08-29T10:55:50.923Z,27.07
2022-08-29T10:58:31.771Z,27.11
2022-08-29T11:01:09.357Z,27.23
2022-08-29T11:03:43.984Z,27.40
2022-08-29T11:06:15.184Z,27.38
2022-08-29T11:08:48.122Z,27.55
2022-08-29T11:11:19.096Z,27.66
2022-08-29T11:13:50.953Z,27.64
2022-08-29T11:16:26.577Z,27.52
2022-08-29T11:19:01.646Z,27.59
2022-08-29T11:21:36.514Z,27.68
2022-08-29T11:24:05.539Z,27.55
2022-08-29T11:26:45.121Z,27.42
2022-08-29T11:29:27.029Z,27.32
2022-08-29T11:32:06.454Z,27.37
2022-08-29T11:34:55.367Z,27.54
2022-08-29T11:37:42.831Z,27.63
2022-08-29T11:40:47.140Z,27.65
2022-08-29T11:43:15.667Z,27.83
2022-08-29T11:45:45.233Z,27.99
2022-08-29T11:48:32.173Z,27.86
2022-08-29T11:51:00.755Z,27.97
2022-08-29T11:53:35.083Z,28.04
2022-08-29T11:56:28.827Z,28.05
2022-08-29T11:58:59.617Z,28.32
2022-08-29T12:02:00.958Z,28.35
2022-08-29T12:04:57.957Z,28.32
2022-08-29T12:07:36.949Z,28.41
2022-08-29T12:10:08.693Z,28.49
2022-08-29T12:12:46.216Z,28.25
2022-08-29T12:15:43.520Z,28.17
2022-08-29T12:18:44.909Z,28.29
2022-08-29T12:21:47.145Z,28.49
2022-08-29T12:24:38.018Z,28.71
2022-08-29T12:27:05.855Z,28.87
2022-08-29T12:29:44.919Z,28.91
2022-08-29T12:32:40.103Z,28.79
2022-08-29T12:35:31.266Z,28.73
2022-08-29T12:38:16.013Z,28.85
2022-08-29T12:40:56.371Z,29.02
2022-08-29T12:43:36.346Z,29.17
2022-08-29T12:46:17.543Z,29.11
2022-08-29T12:48:57.921Z,29.19
2022-08-29T12:51:38.013Z,29.22
2022-08-29T12:54:09.077Z,29.32
2022-08-29T12:56:39.467Z,29.17
2022-08-29T12:59:07.587Z,29.13
2022-08-29T13:01:38.453Z,29.24
2022-08-29T13:04:14.690Z,29.20
2022-08-29T13:06:53.126Z,29.26
2022-08-29T13:09:28.485Z,29.42
2022-08-29T13:12:11.905Z,29.43
2022-08-29T13:14:49.793Z,29.35
2022-08-29T13:17:20.766Z,29.47
2022-08-29T13:20:25.903Z,29.57
2022-08-29T13:23:06.299Z,29.69
2022-08-29T13:25:37.435Z,29.80
2022-08-29T13:28:06.012Z,29.51
2022-08-29T13:30:34.148Z,29.52
2022-08-29T13:33:03.722Z,29.67
2022-08-29T13:35:33.397Z,29.82
2022-08-29T13:38:19.124Z,29.57
2022-08-29T13:40:50.676Z,29.60
2022-08-29T13:43:34.407Z,29.60
2022-08-29T13:46:15.385Z,29.80
2022-08-29T13:48:44.735Z,29.74
2022-08-29T13:51:13.449Z,29.80
2022-08-29T13:53:45.410Z,29.95
2022-08-29T13:56:24.906Z,29.94
2022-08-29T13:58:54.881Z,30.08
2022-08-29T14:02:07.524Z,29.94
2022-08-29T14:04:36.989Z,30.07
2022-08-29T14:07:00.036Z,30.16
2022-08-29T14:09:33.122Z,30.07
2022-08-29T14:12:02.944Z,30.17
2022-08-29T14:14:30.915Z,30.34
2022-08-29T14:16:59.161Z,30.51
2022-08-29T14:19:28.578Z,30.53
2022-08-29T14:21:59.139Z,30.47
2022-08-29T14:24:29.095Z,30.52
2022-08-29T14:27:01.110Z,30.44
2022-08-29T14:29:31.642Z,30.24
2022-08-29T14:32:03.187Z,30.35
2022-08-29T14:34:33.217Z,30.41
2022-08-29T14:37:01.372Z,30.60
2022-08-29T14:39:29.256Z,30.61
2022-08-29T14:41:57.187Z,30.64
2022-08-29T14:44:25.457Z,30.61
2022-08-29T14:46:54.729Z,30.62
2022-08-29T14:49:22.524Z,30.64
2022-08-29T14:51:50.503Z,30.71
2022-08-29T14:54:19.231Z,30.76
2022-08-29T14:56:49.494Z,30.90
2022-08-29T14:59:18.337Z,30.88
2022-08-29T15:01:51.336Z,30.80
2022-08-29T15:04:35.383Z,30.81
2022-08-29T15:07:05.756Z,30.69
2022-08-29T15:09:34.190Z,30.36
2022-08-29T15:12:02.164Z,30.36
2022-08-29T15:14:30.214Z,30.40
2022-08-29T15:16:58.112Z,30.15
2022-08-29T15:22:15.200Z,30.04
2022-08-29T15:24:44.123Z,30.09
2022-08-29T15:27:13.392Z,30.01
2022-08-29T15:29:41.664Z,30.06
2022-08-29T15:32:10.877Z,30.11
2022-08-29T15:34:40.788Z,30.15
2022-08-29T15:37:10.812Z,30.15
2022-08-29T15:39:39.149Z,30.14
2022-08-29T15:42:11.071Z,30.05
2022-08-29T15:44:39.418Z,29.97
2022-08-29T15:47:10.557Z,30.00
2022-08-29T15:49:40.587Z,29.99
2022-08-29T15:52:08.694Z,29.99
2022-08-29T15:54:36.743Z,29.99
2022-08-29T15:57:05.745Z,29.99
2022-08-29T15:59:56.990Z,30.01
2022-08-29T16:02:23.372Z,30.02
2022-08-29T16:04:56.787Z,29.93
2022-08-29T16:07:28.964Z,29.90
2022-08-29T16:09:57.807Z,29.72
2022-08-29T16:12:25.707Z,29.52
2022-08-29T16:15:01.977Z,29.43
2022-08-29T16:17:32.632Z,29.30
2022-08-29T16:20:02.663Z,29.24
2022-08-29T16:22:30.974Z,29.25
2022-08-29T16:24:59.378Z,29.26
2022-08-29T16:27:27.709Z,29.23
2022-08-29T16:29:57.327Z,29.18
2022-08-29T16:32:25.398Z,29.14
2022-08-29T16:34:53.356Z,29.17
2022-08-29T16:37:22.843Z,29.12
2022-08-29T16:39:50.854Z,29.08
2022-08-29T16:42:18.917Z,28.99
2022-08-29T16:44:47.059Z,28.91
2022-08-29T16:47:15.315Z,28.70
2022-08-29T16:49:43.229Z,28.70
2022-08-29T16:52:11.249Z,28.69
2022-08-29T16:54:40.584Z,28.68
2022-08-29T16:57:08.508Z,28.67
2022-08-29T16:59:37.109Z,28.64
2022-08-29T17:02:05.574Z,28.61
2022-08-29T17:04:33.736Z,28.64
2022-08-29T17:07:02.484Z,28.61
2022-08-29T17:09:29.736Z,28.57
2022-08-29T17:11:57.887Z,28.42
2022-08-29T17:14:29.098Z,28.33
2022-08-29T17:16:57.368Z,28.22
2022-08-29T17:19:25.761Z,28.18
2022-08-29T17:21:53.681Z,28.13
2022-08-29T17:24:22.238Z,28.11
2022-08-29T17:26:50.164Z,28.08
2022-08-29T17:29:19.442Z,28.07
2022-08-29T17:31:47.385Z,27.99
2022-08-29T17:34:16.227Z,27.91
2022-08-29T17:36:44.683Z,27.74
2022-08-29T17:39:13.271Z,27.65
2022-08-29T17:41:41.516Z,27.60
2022-08-29T17:44:11.104Z,27.52
2022-08-29T17:46:40.463Z,27.42
2022-08-29T17:49:10.422Z,27.35
2022-08-29T17:51:40.243Z,27.25
2022-08-29T17:54:12.263Z,27.09
2022-08-29T17:56:44.291Z,27.03
2022-08-29T17:59:12.774Z,26.99
2022-08-29T18:01:42.274Z,26.95
2022-08-29T18:04:10.390Z,26.89
2022-08-29T18:06:38.996Z,26.85
2022-08-29T18:09:08.386Z,26.79
2022-08-29T18:11:39.505Z,26.72
2022-08-29T18:14:10.826Z,26.63
2022-08-29T18:16:39.542Z,26.55
2022-08-29T18:19:09.134Z,26.49
2022-08-29T18:21:37.074Z,26.37
2022-08-29T18:24:06.169Z,26.27
2022-08-29T18:26:34.979Z,26.21
2022-08-29T18:29:02.851Z,26.13
2022-08-29T18:31:30.771Z,26.08
2022-08-29T18:34:01.036Z,26.02
2022-08-29T18:36:31.355Z,25.97
2022-08-29T18:38:59.413Z,25.89
2022-08-29T18:41:27.455Z,25.87
2022-08-29T18:43:55.391Z,25.83
2022-08-29T18:46:23.508Z,25.80
2022-08-29T18:48:51.804Z,25.79
2022-08-29T18:51:20.388Z,25.77
2022-08-29T18:53:50.694Z,25.75
2022-08-29T18:56:18.859Z,25.71
2022-08-29T18:58:46.804Z,25.67
2022-08-29T19:01:27.132Z,25.64
2022-08-29T19:03:57.424Z,25.57
2022-08-29T19:06:27.530Z,25.51
2022-08-29T19:08:57.949Z,25.44
2022-08-29T19:11:27.018Z,25.33
2022-08-29T19:13:55.090Z,25.22
2022-08-29T19:16:24.382Z,25.16
2022-08-29T19:18:52.926Z,25.07
2022-08-29T19:21:20.014Z,24.98
2022-08-29T19:23:52.568Z,24.90
2022-08-29T19:26:27.136Z,24.83
2022-08-29T19:28:58.179Z,24.75
2022-08-29T19:31:29.197Z,24.69
2022-08-29T19:33:57.538Z,24.62
2022-08-29T19:36:25.704Z,24.55
2022-08-29T19:38:53.786Z,24.50
2022-08-29T19:41:25.083Z,24.45
2022-08-29T19:43:53.279Z,24.39
2022-08-29T19:46:24.644Z,24.34
2022-08-29T19:48:52.720Z,24.29
2022-08-29T19:51:24.789Z,24.26
2022-08-29T19:53:53.455Z,24.20
2022-08-29T19:56:23.829Z,24.20
2022-08-29T19:58:54.637Z,24.17
2022-08-29T20:01:22.774Z,24.14
2022-08-29T20:03:50.686Z,24.12
2022-08-29T20:06:20.621Z,24.09
2022-08-29T20:08:48.552Z,24.06
2022-08-29T20:11:19.120Z,24.03
2022-08-29T20:13:51.886Z,23.99
2022-08-29T20:16:22.576Z,23.93
2022-08-29T20:18:51.913Z,23.84
2022-08-29T20:21:20.987Z,23.75
2022-08-29T20:23:57.105Z,23.66
2022-08-29T20:26:27.177Z,23.57
2022-08-29T20:28:58.331Z,23.52
2022-08-29T20:31:26.513Z,23.44
2022-08-29T20:33:54.714Z,23.37
2022-08-29T20:36:41.593Z,23.28
2022-08-29T20:39:11.558Z,23.18
2022-08-29T20:41:39.645Z,23.14
2022-08-29T20:44:10.954Z,23.07
2022-08-29T20:46:41.117Z,23.00
2022-08-29T20:49:09.654Z,22.91
2022-08-29T20:51:38.401Z,22.84
2022-08-29T20:54:07.282Z,22.78
2022-08-29T20:56:35.201Z,22.71
2022-08-29T20:59:03.129Z,22.68
2022-08-29T21:01:33.280Z,22.70
2022-08-29T21:04:21.026Z,22.69
2022-08-29T21:06:51.382Z,22.64
2022-08-29T21:09:19.280Z,22.62
2022-08-29T21:11:47.264Z,22.59
2022-08-29T21:14:15.209Z,22.60
2022-08-29T21:16:44.417Z,22.60
2022-08-29T21:19:12.932Z,22.56
2022-08-29T21:21:42.598Z,22.57
2022-08-29T21:24:11.356Z,22.57
2022-08-29T21:26:40.155Z,22.57
2022-08-29T21:29:09.067Z,22.55
2022-08-29T21:31:37.626Z,22.47
2022-08-29T21:34:10.349Z,22.41
2022-08-29T21:36:39.864Z,22.34
2022-08-29T21:39:09.900Z,22.27
2022-08-29T21:41:40.725Z,22.23
2022-08-29T21:44:10.687Z,22.21
2022-08-29T21:46:42.995Z,22.18
2022-08-29T21:49:14.102Z,22.15
2022-08-29T21:51:41.981Z,22.10
2022-08-29T21:54:13.344Z,22.04
2022-08-29T21:56:42.379Z,22.00
2022-08-29T21:59:11.723Z,21.98
2022-08-29T22:01:40.517Z,21.95
2022-08-29T22:04:10.141Z,21.90
2022-08-29T22:06:41.258Z,21.88
2022-08-29T22:09:10.682Z,21.86
2022-08-29T22:11:39.845Z,21.83
2022-08-29T22:14:08.682Z,21.81
2022-08-29T22:16:37.126Z,21.80
2022-08-29T22:19:07.639Z,21.79
2022-08-29T22:21:37.862Z,21.80
2022-08-29T22:24:07.908Z,21.83
2022-08-29T22:26:36.769Z,21.86
2022-08-29T22:29:05.565Z,21.88
2022-08-29T22:31:33.918Z,21.89
2022-08-29T22:34:03.882Z,21.89
2022-08-29T22:36:34.306Z,21.89
2022-08-29T22:39:02.360Z,21.91
2022-08-29T22:41:31.726Z,21.94
2022-08-29T22:46:49.325Z,21.92
2022-08-29T22:49:18.012Z,21.93
2022-08-29T22:51:46.601Z,21.93
2022-08-29T22:54:31.641Z,21.84
2022-08-29T22:57:04.434Z,21.80
2022-08-29T22:59:32.433Z,21.76
2022-08-29T23:02:01.938Z,21.70
2022-08-29T23:04:30.286Z,21.63
2022-08-29T23:06:58.427Z,21.61
2022-08-29T23:09:26.321Z,21.61
2022-08-29T23:11:54.477Z,21.59
2022-08-29T23:14:24.120Z,21.57
2022-08-29T23:16:55.834Z,21.49
2022-08-29T23:19:23.697Z,21.46
2022-08-29T23:21:51.816Z,21.41
2022-08-29T23:24:20.941Z,21.39
2022-08-29T23:26:49.248Z,21.40
2022-08-29T23:29:17.197Z,21.41
2022-08-29T23:31:46.518Z,21.41
2022-08-29T23:34:14.905Z,21.37
2022-08-29T23:36:42.894Z,21.32
2022-08-29T23:39:11.054Z,21.30
2022-08-29T23:41:38.944Z,21.29
2022-08-29T23:44:06.882Z,21.28
2022-08-29T23:46:34.827Z,21.31
2022-08-29T23:49:05.361Z,21.33
2022-08-29T23:51:33.658Z,21.35
2022-08-29T23:54:01.756Z,21.39
2022-08-29T23:56:29.729Z,21.39
2022-08-29T23:58:57.904Z,21.39
